createdAt,value
2023-01-12T00:00:08.672Z,23.52
2023-01-12T00:03:16.713Z,19.27
2023-01-12T00:06:23.058Z,29.77
2023-01-12T00:09:28.251Z,39.38
2023-01-12T00:12:33.550Z,20.92
2023-01-12T00:15:57.955Z,20.83
2023-01-12T00:19:09.779Z,21.83
2023-01-12T00:22:14.739Z,28.33
2023-01-12T00:25:19.113Z,31.85
2023-01-12T00:28:23.608Z,19.55
2023-01-12T00:31:27.988Z,18.67
2023-01-12T00:34:32.419Z,18.40
2023-01-12T00:37:36.702Z,32.20
2023-01-12T00:40:41.157Z,26.60
2023-01-12T00:44:04.050Z,29.52
2023-01-12T00:47:09.640Z,16.92
2023-01-12T00:50:14.642Z,20.85
2023-01-12T00:53:18.756Z,27.58
2023-01-12T00:56:23.027Z,24.42
2023-01-12T00:59:28.279Z,18.85
2023-01-12T01:02:33.011Z,24.17
2023-01-12T01:05:37.528Z,28.50
2023-01-12T01:08:42.121Z,21.70
2023-01-12T01:11:46.459Z,14.73
2023-01-12T01:14:50.872Z,29.27
2023-01-12T01:17:55.427Z,17.52
2023-01-12T01:21:00.055Z,16.67
2023-01-12T01:24:04.311Z,19.13
2023-01-12T01:27:08.887Z,38.50
2023-01-12T01:30:13.375Z,30.87
2023-01-12T01:33:17.719Z,19.70
2023-01-12T01:36:22.655Z,20.25
2023-01-12T01:39:26.812Z,25.10
2023-01-12T01:42:31.557Z,28.25
2023-01-12T01:45:35.588Z,37.27
2023-01-12T01:48:40.319Z,31.53
2023-01-12T01:51:46.134Z,38.88
2023-01-12T01:55:19.255Z,30.67
2023-01-12T01:58:35.896Z,26.73
2023-01-12T02:01:40.509Z,26.90
2023-01-12T02:04:45.582Z,32.38
2023-01-12T02:07:51.042Z,28.85
2023-01-12T02:10:57.814Z,31.35
2023-01-12T02:14:20.352Z,26.52
2023-01-12T02:17:58.502Z,24.30
2023-01-12T02:21:20.326Z,30.02
2023-01-12T02:24:42.421Z,21.38
2023-01-12T02:27:52.932Z,20.48
2023-01-12T02:31:18.720Z,29.33
2023-01-12T02:34:34.765Z,31.73
2023-01-12T02:37:54.107Z,34.13
2023-01-12T02:41:45.435Z,26.25
2023-01-12T02:45:08.553Z,28.25
2023-01-12T02:48:26.684Z,25.17
2023-01-12T02:51:40.373Z,21.52
2023-01-12T02:54:48.133Z,26.65
2023-01-12T02:57:55.061Z,23.98
2023-01-12T03:01:01.462Z,22.42
2023-01-12T03:04:09.046Z,20.83
2023-01-12T03:07:19.214Z,31.77
2023-01-12T03:10:29.658Z,38.10
2023-01-12T03:13:37.343Z,33.53
2023-01-12T03:16:41.481Z,25.83
2023-01-12T03:19:47.991Z,27.08
2023-01-12T03:22:56.180Z,15.15
2023-01-12T03:26:02.098Z,14.45
2023-01-12T03:29:33.203Z,24.08
2023-01-12T03:32:37.656Z,25.98
2023-01-12T03:36:24.008Z,28.90
2023-01-12T03:39:39.215Z,23.40
2023-01-12T03:42:51.300Z,20.13
2023-01-12T03:46:04.848Z,27.25
2023-01-12T03:49:30.978Z,24.60
2023-01-12T03:55:42.825Z,35.83
2023-01-12T03:58:48.401Z,24.92
2023-01-12T04:01:53.105Z,12.48
2023-01-12T04:04:58.810Z,25.63
2023-01-12T04:08:03.454Z,10.60
2023-01-12T04:11:27.251Z,8.82
2023-01-12T04:14:31.584Z,11.23
2023-01-12T04:17:36.185Z,9.30
2023-01-12T04:20:40.915Z,5.07
2023-01-12T04:23:45.333Z,11.68
2023-01-12T04:26:49.573Z,9.20
2023-01-12T04:29:54.711Z,14.40
2023-01-12T04:33:00.496Z,3.90
2023-01-12T04:39:09.499Z,4.85
2023-01-12T04:42:32.274Z,8.70
2023-01-12T04:45:39.813Z,10.07
2023-01-12T04:48:45.489Z,19.45
2023-01-12T04:51:49.587Z,14.40
2023-01-12T04:54:56.198Z,13.17
2023-01-12T04:58:01.393Z,10.82
2023-01-12T05:01:14.093Z,10.82
2023-01-12T05:04:18.460Z,10.15
2023-01-12T05:07:22.865Z,8.30
2023-01-12T05:10:27.926Z,17.58
2023-01-12T05:13:32.692Z,12.52
2023-01-12T05:16:37.170Z,11.18
2023-01-12T05:19:41.371Z,14.50
2023-01-12T05:22:48.293Z,22.27
2023-01-12T05:25:52.597Z,19.20
2023-01-12T05:28:57.103Z,18.95
2023-01-12T05:32:01.613Z,12.13
2023-01-12T05:35:07.762Z,22.00
2023-01-12T05:38:12.709Z,14.57
2023-01-12T05:41:17.219Z,14.82
2023-01-12T05:44:21.533Z,12.87
2023-01-12T05:47:25.987Z,15.48
2023-01-12T05:50:30.491Z,21.50
2023-01-12T05:53:47.560Z,12.82
2023-01-12T05:56:52.034Z,10.50
2023-01-12T05:59:56.815Z,13.50
2023-01-12T06:03:04.653Z,18.77
2023-01-12T06:06:08.913Z,18.98
2023-01-12T06:09:13.381Z,12.30
2023-01-12T06:12:36.230Z,21.83
2023-01-12T06:15:40.592Z,17.98
2023-01-12T06:18:44.904Z,19.13
2023-01-12T06:21:49.210Z,15.95
2023-01-12T06:24:54.493Z,12.43
2023-01-12T06:27:59.108Z,14.23
2023-01-12T06:31:06.458Z,22.90
2023-01-12T06:34:11.987Z,17.42
2023-01-12T06:37:16.491Z,14.32
2023-01-12T06:40:20.910Z,29.13
2023-01-12T06:43:25.387Z,21.90
2023-01-12T06:46:30.107Z,25.55
2023-01-12T06:49:34.347Z,14.48
2023-01-12T06:52:38.736Z,11.40
2023-01-12T06:55:49.653Z,24.45
2023-01-12T06:58:53.818Z,18.70
2023-01-12T07:01:58.162Z,13.75
2023-01-12T07:05:02.461Z,22.60
2023-01-12T07:08:07.147Z,15.85
2023-01-12T07:11:16.711Z,14.25
2023-01-12T07:14:21.215Z,17.92
2023-01-12T07:17:25.587Z,13.80
2023-01-12T07:20:30.111Z,14.48
2023-01-12T07:23:34.911Z,16.57
2023-01-12T07:26:39.351Z,12.50
2023-01-12T07:29:43.725Z,32.53
2023-01-12T07:32:49.340Z,19.05
2023-01-12T07:35:56.991Z,17.58
2023-01-12T07:39:01.297Z,12.25
2023-01-12T07:42:23.787Z,13.98
2023-01-12T07:45:30.153Z,19.20
2023-01-12T07:48:35.809Z,26.02
2023-01-12T07:51:40.756Z,42.58
2023-01-12T07:54:45.080Z,28.30
2023-01-12T07:57:56.862Z,13.65
2023-01-12T08:01:02.185Z,11.30
2023-01-12T08:04:07.357Z,12.48
2023-01-12T08:07:12.739Z,13.43
2023-01-12T08:10:17.482Z,19.10
2023-01-12T08:13:25.496Z,10.45
2023-01-12T08:16:35.815Z,18.83
2023-01-12T08:19:45.362Z,19.92
2023-01-12T08:22:52.110Z,10.65
2023-01-12T08:26:01.475Z,12.65
2023-01-12T08:29:17.711Z,11.13
2023-01-12T08:32:22.388Z,14.35
2023-01-12T08:35:28.396Z,28.60
2023-01-12T08:38:33.428Z,8.93
2023-01-12T08:41:38.040Z,26.02
2023-01-12T08:44:42.487Z,18.58
2023-01-12T08:47:48.132Z,14.32
2023-01-12T08:50:52.413Z,13.70
2023-01-12T08:53:56.685Z,15.33
2023-01-12T08:57:00.883Z,10.70
2023-01-12T09:00:06.673Z,9.15
2023-01-12T09:03:11.387Z,9.68
2023-01-12T09:06:17.184Z,17.65
2023-01-12T09:09:22.346Z,12.43
2023-01-12T09:12:27.654Z,10.55
2023-01-12T09:15:31.759Z,17.40
2023-01-12T09:18:36.520Z,13.23
2023-01-12T09:21:42.057Z,15.05
2023-01-12T09:24:46.475Z,11.07
2023-01-12T09:27:50.772Z,14.02
2023-01-12T09:30:55.075Z,18.63
2023-01-12T09:34:00.293Z,15.00
2023-01-12T09:37:05.276Z,17.95
2023-01-12T09:40:13.691Z,12.82
2023-01-12T09:43:36.438Z,17.23
2023-01-12T09:46:58.860Z,15.63
2023-01-12T09:50:13.791Z,17.45
2023-01-12T09:53:23.127Z,11.85
2023-01-12T09:56:36.508Z,10.10
2023-01-12T10:00:01.727Z,7.25
2023-01-12T10:03:35.550Z,9.02
2023-01-12T10:06:40.006Z,13.82
2023-01-12T10:09:44.906Z,13.35
2023-01-12T10:16:09.253Z,11.75
2023-01-12T10:19:29.478Z,15.13
2023-01-12T10:22:44.610Z,8.95
2023-01-12T10:26:08.604Z,8.55
2023-01-12T10:29:12.768Z,8.77
2023-01-12T10:32:17.366Z,11.27
2023-01-12T10:35:24.508Z,12.73
2023-01-12T10:38:52.278Z,8.23
2023-01-12T10:42:36.530Z,9.18
2023-01-12T10:45:43.705Z,6.68
2023-01-12T10:48:50.849Z,6.32
2023-01-12T10:51:58.321Z,11.30
2023-01-12T10:55:05.135Z,7.55
2023-01-12T10:58:31.414Z,4.28
2023-01-12T11:01:45.873Z,5.32
2023-01-12T11:04:52.583Z,4.78
2023-01-12T11:07:57.863Z,4.05
2023-01-12T11:11:23.573Z,9.35
2023-01-12T11:14:34.107Z,4.53
2023-01-12T11:17:49.518Z,6.55
2023-01-12T11:21:04.474Z,7.10
2023-01-12T11:24:26.734Z,6.70
2023-01-12T11:27:40.111Z,3.90
2023-01-12T11:30:54.781Z,3.63
2023-01-12T11:34:03.755Z,4.03
2023-01-12T11:37:13.609Z,2.83
2023-01-12T11:40:33.245Z,4.93
2023-01-12T11:44:03.218Z,6.57
2023-01-12T11:47:13.616Z,1.80
2023-01-12T11:50:28.536Z,1.75
2023-01-12T11:53:34.407Z,4.20
2023-01-12T11:57:06.699Z,4.28
2023-01-12T12:00:48.906Z,1.80
2023-01-12T12:04:01.545Z,2.72
2023-01-12T12:07:35.174Z,3.60
2023-01-12T12:11:05.919Z,0.85
2023-01-12T12:14:47.526Z,1.35
2023-01-12T12:17:57.370Z,4.20
2023-01-12T12:21:21.467Z,3.03
2023-01-12T12:24:34.271Z,1.65
2023-01-12T12:27:56.458Z,1.27
2023-01-12T12:31:03.780Z,2.38
2023-01-12T12:34:49.306Z,2.30
2023-01-12T12:38:32.260Z,5.95
2023-01-12T12:42:16.447Z,2.38
2023-01-12T12:45:37.101Z,2.78
2023-01-12T12:48:58.715Z,4.40
2023-01-12T12:52:04.873Z,2.42
2023-01-12T12:55:12.408Z,3.25
2023-01-12T12:58:22.710Z,4.30
2023-01-12T13:01:27.427Z,5.88
2023-01-12T13:04:43.857Z,5.78
2023-01-12T13:07:52.555Z,10.82
2023-01-12T13:10:58.672Z,7.18
2023-01-12T13:14:19.846Z,7.28
2023-01-12T13:17:24.620Z,7.70
2023-01-12T13:20:48.487Z,11.20
2023-01-12T13:23:54.448Z,11.48
2023-01-12T13:27:01.128Z,4.07
2023-01-12T13:30:31.572Z,13.68
2023-01-12T13:33:37.747Z,3.92
2023-01-12T13:36:43.354Z,7.13
2023-01-12T13:40:08.799Z,6.78
2023-01-12T13:43:30.275Z,5.07
2023-01-12T13:46:45.401Z,10.43
2023-01-12T13:49:56.377Z,7.25
2023-01-12T13:53:03.307Z,12.75
2023-01-12T13:56:18.634Z,6.68
2023-01-12T13:59:24.879Z,5.53
2023-01-12T14:02:32.432Z,5.07
2023-01-12T14:06:18.447Z,10.15
2023-01-12T14:09:43.129Z,4.35
2023-01-12T14:12:56.191Z,8.48
2023-01-12T14:16:20.801Z,4.68
2023-01-12T14:19:28.589Z,6.43
2023-01-12T14:22:33.214Z,7.95
2023-01-12T14:25:37.553Z,5.10
2023-01-12T14:28:44.720Z,8.57
2023-01-12T14:31:52.393Z,10.55
2023-01-12T14:34:57.692Z,12.70
2023-01-12T14:38:02.168Z,10.48
2023-01-12T14:41:29.201Z,6.13
2023-01-12T14:44:57.394Z,12.52
2023-01-12T14:48:20.994Z,13.00
2023-01-12T14:51:36.768Z,9.75
2023-01-12T14:54:41.150Z,18.33
2023-01-12T14:58:01.615Z,13.20
2023-01-12T15:01:06.465Z,14.43
2023-01-12T15:04:18.315Z,10.82
2023-01-12T15:07:23.627Z,17.33
2023-01-12T15:10:40.786Z,13.63
2023-01-12T15:13:57.083Z,21.95
2023-01-12T15:17:19.648Z,14.20
2023-01-12T15:20:48.311Z,22.65
2023-01-12T15:24:11.235Z,20.30
2023-01-12T15:27:18.551Z,14.25
2023-01-12T15:30:22.696Z,21.58
2023-01-12T15:33:26.914Z,19.23
2023-01-12T15:36:31.482Z,18.77
2023-01-12T15:39:35.922Z,14.20
2023-01-12T15:42:40.584Z,22.45
2023-01-12T15:45:47.024Z,17.60
2023-01-12T15:48:51.754Z,12.52
2023-01-12T15:51:56.098Z,26.38
2023-01-12T15:55:00.608Z,12.25
2023-01-12T15:58:05.120Z,24.00
2023-01-12T16:01:15.247Z,19.92
2023-01-12T16:04:43.084Z,14.60
2023-01-12T16:07:49.064Z,12.75
2023-01-12T16:11:12.187Z,6.57
2023-01-12T16:14:16.723Z,1.65
2023-01-12T16:17:21.278Z,7.10
2023-01-12T16:20:25.767Z,5.00
2023-01-12T16:23:31.827Z,2.28
2023-01-12T16:26:36.157Z,3.10
2023-01-12T16:29:40.681Z,4.13
2023-01-12T16:32:46.938Z,9.80
2023-01-12T16:35:55.324Z,2.70
2023-01-12T16:38:59.963Z,7.50
2023-01-12T16:42:04.245Z,8.13
2023-01-12T16:45:10.082Z,8.77
2023-01-12T16:48:14.705Z,5.63
2023-01-12T16:51:19.466Z,8.68
2023-01-12T16:54:23.857Z,7.22
2023-01-12T16:57:28.443Z,4.78
2023-01-12T17:00:33.668Z,7.85
2023-01-12T17:03:38.815Z,4.30
2023-01-12T17:06:42.961Z,7.40
2023-01-12T17:09:47.119Z,3.83
2023-01-12T17:12:58.063Z,2.10
2023-01-12T17:16:09.404Z,3.92
2023-01-12T17:19:14.556Z,0.95
2023-01-12T17:22:19.542Z,1.25
2023-01-12T17:25:24.400Z,2.30
2023-01-12T17:28:29.871Z,4.60
2023-01-12T17:31:34.541Z,5.63
2023-01-12T17:34:39.789Z,3.38
2023-01-12T17:40:48.658Z,4.72
2023-01-12T17:43:52.968Z,5.30
2023-01-12T17:46:57.549Z,4.63
2023-01-12T17:50:01.941Z,1.35
2023-01-12T17:53:09.776Z,4.78
2023-01-12T17:56:14.476Z,6.05
2023-01-12T17:59:21.104Z,7.40
2023-01-12T18:02:25.235Z,12.45
2023-01-12T18:05:31.183Z,10.68
2023-01-12T18:08:35.997Z,17.77
2023-01-12T18:11:41.089Z,18.10
2023-01-12T18:14:45.459Z,20.40
2023-01-12T18:17:49.909Z,64.13
2023-01-12T18:20:55.021Z,39.25
2023-01-12T18:23:59.888Z,23.60
2023-01-12T18:27:04.229Z,23.55
2023-01-12T18:30:09.414Z,25.27
2023-01-12T18:33:13.791Z,19.40
2023-01-12T18:36:21.442Z,7.88
2023-01-12T18:39:26.091Z,6.60
2023-01-12T18:42:49.016Z,9.70
2023-01-12T18:45:53.351Z,4.05
2023-01-12T18:48:57.870Z,5.18
2023-01-12T18:52:22.197Z,6.80
2023-01-12T18:55:26.490Z,4.00
2023-01-12T18:58:33.371Z,3.80
2023-01-12T19:01:38.295Z,2.15
2023-01-12T19:04:52.175Z,6.00
2023-01-12T19:07:59.700Z,6.70
2023-01-12T19:11:11.963Z,5.72
2023-01-12T19:14:34.935Z,5.50
2023-01-12T19:17:41.818Z,6.70
2023-01-12T19:20:46.109Z,6.00
2023-01-12T19:24:09.085Z,10.60
2023-01-12T19:27:32.218Z,8.15
2023-01-12T19:30:38.036Z,6.97
2023-01-12T19:33:42.887Z,3.95
2023-01-12T19:40:00.699Z,8.27
2023-01-12T19:43:17.515Z,4.32
2023-01-12T19:46:22.240Z,5.15
2023-01-12T19:49:26.547Z,7.05
2023-01-12T19:52:30.962Z,5.18
2023-01-12T19:55:36.319Z,6.97
2023-01-12T19:58:41.365Z,2.55
2023-01-12T20:01:46.212Z,4.80
2023-01-12T20:04:50.389Z,2.15
2023-01-12T20:07:55.320Z,7.25
2023-01-12T20:11:03.297Z,2.85
2023-01-12T20:14:09.573Z,4.35
2023-01-12T20:17:14.180Z,4.07
2023-01-12T20:20:19.220Z,5.00
2023-01-12T20:26:28.635Z,8.57
2023-01-12T20:29:33.070Z,6.55
2023-01-12T20:32:41.680Z,13.40
2023-01-12T20:35:47.985Z,7.95
2023-01-12T20:38:52.575Z,6.13
2023-01-12T20:41:57.052Z,7.68
2023-01-12T20:45:01.961Z,6.95
2023-01-12T20:51:14.668Z,2.45
2023-01-12T20:54:19.291Z,4.70
2023-01-12T20:57:23.646Z,2.65
2023-01-12T21:00:29.131Z,6.93
2023-01-12T21:03:33.570Z,3.13
2023-01-12T21:06:42.171Z,4.32
2023-01-12T21:09:46.849Z,2.85
2023-01-12T21:12:51.197Z,4.38
2023-01-12T21:16:03.327Z,5.68
2023-01-12T21:19:08.292Z,2.72
2023-01-12T21:22:13.160Z,2.35
2023-01-12T21:25:18.081Z,12.65
2023-01-12T21:28:23.546Z,2.47
2023-01-12T21:31:27.756Z,5.53
2023-01-12T21:34:32.408Z,3.95
2023-01-12T21:37:37.050Z,4.13
2023-01-12T21:40:41.340Z,5.65
2023-01-12T21:43:49.834Z,8.13
2023-01-12T21:46:54.365Z,5.57
2023-01-12T21:49:58.684Z,10.07
2023-01-12T21:53:04.000Z,8.40
2023-01-12T21:56:11.766Z,5.03
2023-01-12T21:59:16.273Z,2.28
2023-01-12T22:02:20.807Z,10.80
2023-01-12T22:05:26.033Z,6.93
2023-01-12T22:08:30.396Z,9.93
2023-01-12T22:11:34.667Z,4.10
2023-01-12T22:14:38.987Z,4.80
2023-01-12T22:17:43.906Z,6.80
2023-01-12T22:20:49.563Z,4.65
2023-01-12T22:23:54.086Z,5.88
2023-01-12T22:26:58.579Z,7.33
2023-01-12T22:30:05.519Z,2.70
2023-01-12T22:33:11.202Z,1.42
2023-01-12T22:36:16.066Z,3.17
2023-01-12T22:39:20.675Z,3.42
2023-01-12T22:42:45.231Z,5.78
2023-01-12T22:45:50.709Z,5.50
2023-01-12T22:48:56.808Z,11.50
2023-01-12T22:52:02.306Z,5.22
2023-01-12T22:55:06.580Z,5.22
2023-01-12T22:58:11.003Z,7.22
2023-01-12T23:01:17.172Z,8.60
2023-01-12T23:04:21.660Z,4.10
2023-01-12T23:07:26.842Z,7.93
2023-01-12T23:10:31.380Z,12.73
2023-01-12T23:13:36.331Z,9.05
2023-01-12T23:16:40.815Z,8.43
2023-01-12T23:19:45.202Z,7.78
2023-01-12T23:22:49.566Z,5.60
2023-01-12T23:25:54.857Z,7.35
2023-01-12T23:29:02.154Z,3.67
2023-01-12T23:32:06.867Z,6.90
2023-01-12T23:35:11.062Z,4.40
2023-01-12T23:38:16.373Z,4.63
2023-01-12T23:41:23.221Z,12.10
2023-01-12T23:44:27.592Z,6.75
2023-01-12T23:47:32.969Z,13.45
2023-01-12T23:50:37.449Z,9.05
2023-01-12T23:53:42.051Z,9.70
2023-01-12T23:56:46.491Z,8.88
2023-01-12T23:59:51.617Z,14.40
